sensor_id;sensor_type;location;lat;lon;timestamp;P1;durP1;ratioP1;P2;durP2;ratioP2
76540;SDS011;65385;55.772;37.658;2023-06-14T00:00:21;18.98;;;6.95;;
76540;SDS011;65385;55.772;37.658;2023-06-14T00:01:22;11.70;;;6.03;;
76540;SDS011;65385;55.772;37.658;2023-06-14T00:02:23;11.57;;;5.60;;
76540;SDS011;65385;55.772;37.658;2023-06-14T00:03:24;15.43;;;6.20;;
76540;SDS011;65385;55.772;37.658;2023-06-14T00:04:24;15.20;;;5.82;;
76540;SDS011;65385;55.772;37.658;2023-06-14T00:05:25;18.67;;;6.72;;
76540;SDS011;65385;55.772;37.658;2023-06-14T00:06:26;15.98;;;6.40;;
76540;SDS011;65385;55.772;37.658;2023-06-14T00:07:35;13.15;;;6.35;;
76540;SDS011;65385;55.772;37.658;2023-06-14T00:08:37;12.68;;;5.70;;
76540;SDS011;65385;55.772;37.658;2023-06-14T00:09:37;12.65;;;5.60;;
76540;SDS011;65385;55.772;37.658;2023-06-14T00:10:38;12.18;;;6.53;;
76540;SDS011;65385;55.772;37.658;2023-06-14T00:11:41;16.20;;;6.25;;
76540;SDS011;65385;55.772;37.658;2023-06-14T00:12:42;13.48;;;6.90;;
76540;SDS011;65385;55.772;37.658;2023-06-14T00:13:42;15.38;;;5.95;;
76540;SDS011;65385;55.772;37.658;2023-06-14T00:14:43;12.95;;;6.35;;
76540;SDS011;65385;55.772;37.658;2023-06-14T00:15:44;14.27;;;6.10;;
76540;SDS011;65385;55.772;37.658;2023-06-14T00:16:46;10.57;;;6.05;;
76540;SDS011;65385;55.772;37.658;2023-06-14T00:17:48;13.70;;;6.25;;
76540;SDS011;65385;55.772;37.658;2023-06-14T00:18:48;11.40;;;5.45;;
76540;SDS011;65385;55.772;37.658;2023-06-14T00:19:52;10.95;;;6.07;;
76540;SDS011;65385;55.772;37.658;2023-06-14T00:20:53;12.90;;;5.85;;
76540;SDS011;65385;55.772;37.658;2023-06-14T00:21:53;11.82;;;5.10;;
76540;SDS011;65385;55.772;37.658;2023-06-14T00:22:54;17.27;;;6.18;;
76540;SDS011;65385;55.772;37.658;2023-06-14T00:23:56;12.90;;;6.07;;
76540;SDS011;65385;55.772;37.658;2023-06-14T00:25:01;11.70;;;6.38;;
76540;SDS011;65385;55.772;37.658;2023-06-14T00:26:01;11.63;;;5.72;;
76540;SDS011;65385;55.772;37.658;2023-06-14T00:27:02;12.27;;;5.88;;
76540;SDS011;65385;55.772;37.658;2023-06-14T00:28:03;10.15;;;4.95;;
76540;SDS011;65385;55.772;37.658;2023-06-14T00:29:04;13.85;;;5.47;;
76540;SDS011;65385;55.772;37.658;2023-06-14T00:30:05;16.92;;;5.82;;
76540;SDS011;65385;55.772;37.658;2023-06-14T00:31:08;13.10;;;5.57;;
76540;SDS011;65385;55.772;37.658;2023-06-14T00:32:09;15.23;;;6.35;;
76540;SDS011;65385;55.772;37.658;2023-06-14T00:33:10;10.40;;;5.10;;
76540;SDS011;65385;55.772;37.658;2023-06-14T00:34:11;14.63;;;5.72;;
76540;SDS011;65385;55.772;37.658;2023-06-14T00:35:11;12.85;;;5.70;;
76540;SDS011;65385;55.772;37.658;2023-06-14T00:36:12;12.15;;;5.43;;
76540;SDS011;65385;55.772;37.658;2023-06-14T00:37:12;13.55;;;6.13;;
76540;SDS011;65385;55.772;37.658;2023-06-14T00:38:13;13.20;;;6.38;;
76540;SDS011;65385;55.772;37.658;2023-06-14T00:39:14;12.82;;;5.68;;
76540;SDS011;65385;55.772;37.658;2023-06-14T00:40:15;14.32;;;6.13;;
76540;SDS011;65385;55.772;37.658;2023-06-14T00:41:15;15.35;;;6.18;;
76540;SDS011;65385;55.772;37.658;2023-06-14T00:42:26;14.38;;;5.90;;
76540;SDS011;65385;55.772;37.658;2023-06-14T00:43:28;14.25;;;6.20;;
76540;SDS011;65385;55.772;37.658;2023-06-14T00:44:28;10.65;;;5.82;;
76540;SDS011;65385;55.772;37.658;2023-06-14T00:45:29;12.30;;;5.07;;
76540;SDS011;65385;55.772;37.658;2023-06-14T00:46:31;10.73;;;6.13;;
76540;SDS011;65385;55.772;37.658;2023-06-14T00:47:32;12.35;;;5.25;;
76540;SDS011;65385;55.772;37.658;2023-06-14T00:48:33;13.77;;;6.13;;
76540;SDS011;65385;55.772;37.658;2023-06-14T00:49:35;16.50;;;5.93;;
76540;SDS011;65385;55.772;37.658;2023-06-14T00:50:36;13.82;;;5.85;;
76540;SDS011;65385;55.772;37.658;2023-06-14T00:51:38;13.98;;;6.30;;
76540;SDS011;65385;55.772;37.658;2023-06-14T00:52:39;11.77;;;6.40;;
76540;SDS011;65385;55.772;37.658;2023-06-14T00:53:40;13.45;;;6.07;;
76540;SDS011;65385;55.772;37.658;2023-06-14T00:54:46;11.00;;;6.40;;
76540;SDS011;65385;55.772;37.658;2023-06-14T00:55:47;15.13;;;6.00;;
76540;SDS011;65385;55.772;37.658;2023-06-14T00:56:51;9.65;;;6.00;;
76540;SDS011;65385;55.772;37.658;2023-06-14T00:57:54;15.93;;;6.90;;
76540;SDS011;65385;55.772;37.658;2023-06-14T00:58:56;12.40;;;5.60;;
76540;SDS011;65385;55.772;37.658;2023-06-14T00:59:58;11.07;;;6.00;;
76540;SDS011;65385;55.772;37.658;2023-06-14T01:00:58;21.40;;;7.03;;
76540;SDS011;65385;55.772;37.658;2023-06-14T01:01:59;14.00;;;6.38;;
76540;SDS011;65385;55.772;37.658;2023-06-14T01:03:00;15.02;;;6.18;;
76540;SDS011;65385;55.772;37.658;2023-06-14T01:04:03;13.38;;;5.82;;
76540;SDS011;65385;55.772;37.658;2023-06-14T01:05:04;11.80;;;5.57;;
76540;SDS011;65385;55.772;37.658;2023-06-14T01:08:52;11.77;;;6.05;;
76540;SDS011;65385;55.772;37.658;2023-06-14T01:11:07;14.48;;;5.72;;
76540;SDS011;65385;55.772;37.658;2023-06-14T01:13:45;15.48;;;6.18;;
76540;SDS011;65385;55.772;37.658;2023-06-14T01:14:47;9.60;;;5.72;;
76540;SDS011;65385;55.772;37.658;2023-06-14T01:15:49;11.05;;;5.70;;
76540;SDS011;65385;55.772;37.658;2023-06-14T01:16:51;12.55;;;6.05;;
76540;SDS011;65385;55.772;37.658;2023-06-14T01:17:55;10.77;;;5.95;;
76540;SDS011;65385;55.772;37.658;2023-06-14T01:19:04;14.40;;;5.70;;
76540;SDS011;65385;55.772;37.658;2023-06-14T01:20:06;11.82;;;5.53;;
76540;SDS011;65385;55.772;37.658;2023-06-14T01:21:20;13.98;;;6.10;;
76540;SDS011;65385;55.772;37.658;2023-06-14T01:22:26;11.60;;;5.78;;
76540;SDS011;65385;55.772;37.658;2023-06-14T01:23:30;16.90;;;6.28;;
76540;SDS011;65385;55.772;37.658;2023-06-14T01:24:33;14.20;;;6.45;;
76540;SDS011;65385;55.772;37.658;2023-06-14T01:25:35;13.00;;;5.90;;
76540;SDS011;65385;55.772;37.658;2023-06-14T01:26:36;15.73;;;6.22;;
76540;SDS011;65385;55.772;37.658;2023-06-14T01:27:38;20.48;;;6.50;;
76540;SDS011;65385;55.772;37.658;2023-06-14T01:28:39;18.27;;;6.57;;
76540;SDS011;65385;55.772;37.658;2023-06-14T01:29:40;19.02;;;7.38;;
76540;SDS011;65385;55.772;37.658;2023-06-14T01:30:50;14.20;;;6.88;;
76540;SDS011;65385;55.772;37.658;2023-06-14T01:31:54;15.63;;;6.40;;
76540;SDS011;65385;55.772;37.658;2023-06-14T01:32:55;11.63;;;5.65;;
76540;SDS011;65385;55.772;37.658;2023-06-14T01:33:57;12.75;;;6.07;;
76540;SDS011;65385;55.772;37.658;2023-06-14T01:34:57;13.32;;;6.40;;
76540;SDS011;65385;55.772;37.658;2023-06-14T01:37:05;12.75;;;6.03;;
76540;SDS011;65385;55.772;37.658;2023-06-14T01:38:07;16.40;;;6.55;;
76540;SDS011;65385;55.772;37.658;2023-06-14T01:39:08;14.27;;;6.38;;
76540;SDS011;65385;55.772;37.658;2023-06-14T01:40:12;13.15;;;6.55;;
76540;SDS011;65385;55.772;37.658;2023-06-14T01:41:15;20.67;;;6.65;;
76540;SDS011;65385;55.772;37.658;2023-06-14T01:42:18;14.52;;;6.68;;
76540;SDS011;65385;55.772;37.658;2023-06-14T01:43:20;16.40;;;7.90;;
76540;SDS011;65385;55.772;37.658;2023-06-14T01:44:23;14.52;;;7.15;;
76540;SDS011;65385;55.772;37.658;2023-06-14T01:45:24;12.73;;;6.35;;
76540;SDS011;65385;55.772;37.658;2023-06-14T01:46:25;15.90;;;7.30;;
76540;SDS011;65385;55.772;37.658;2023-06-14T01:47:29;17.00;;;7.57;;
76540;SDS011;65385;55.772;37.658;2023-06-14T01:48:30;15.00;;;8.23;;
76540;SDS011;65385;55.772;37.658;2023-06-14T01:49:34;14.02;;;7.78;;
76540;SDS011;65385;55.772;37.658;2023-06-14T01:50:35;13.95;;;7.35;;
76540;SDS011;65385;55.772;37.658;2023-06-14T01:51:38;17.42;;;7.72;;
76540;SDS011;65385;55.772;37.658;2023-06-14T01:52:38;19.25;;;7.90;;
76540;SDS011;65385;55.772;37.658;2023-06-14T01:53:39;15.55;;;7.82;;
76540;SDS011;65385;55.772;37.658;2023-06-14T01:54:44;15.90;;;7.65;;
76540;SDS011;65385;55.772;37.658;2023-06-14T01:55:44;19.58;;;9.15;;
76540;SDS011;65385;55.772;37.658;2023-06-14T01:56:48;17.10;;;8.40;;
76540;SDS011;65385;55.772;37.658;2023-06-14T01:57:49;14.75;;;7.43;;
76540;SDS011;65385;55.772;37.658;2023-06-14T01:58:50;15.60;;;8.15;;
76540;SDS011;65385;55.772;37.658;2023-06-14T01:59:52;15.55;;;8.07;;
76540;SDS011;65385;55.772;37.658;2023-06-14T02:00:53;16.63;;;8.35;;
76540;SDS011;65385;55.772;37.658;2023-06-14T02:01:55;16.48;;;8.63;;
76540;SDS011;65385;55.772;37.658;2023-06-14T02:02:56;17.70;;;8.07;;
76540;SDS011;65385;55.772;37.658;2023-06-14T02:03:57;14.98;;;7.45;;
76540;SDS011;65385;55.772;37.658;2023-06-14T02:04:58;18.92;;;7.35;;
76540;SDS011;65385;55.772;37.658;2023-06-14T02:05:58;20.05;;;8.40;;
76540;SDS011;65385;55.772;37.658;2023-06-14T02:06:59;15.30;;;8.25;;
76540;SDS011;65385;55.772;37.658;2023-06-14T02:08:00;17.92;;;7.85;;
76540;SDS011;65385;55.772;37.658;2023-06-14T02:09:01;16.90;;;8.27;;
76540;SDS011;65385;55.772;37.658;2023-06-14T02:10:03;15.93;;;8.40;;
76540;SDS011;65385;55.772;37.658;2023-06-14T02:12:09;21.75;;;8.65;;
76540;SDS011;65385;55.772;37.658;2023-06-14T02:13:11;16.05;;;8.93;;
76540;SDS011;65385;55.772;37.658;2023-06-14T02:14:13;17.45;;;8.10;;
76540;SDS011;65385;55.772;37.658;2023-06-14T02:15:15;19.30;;;8.38;;
76540;SDS011;65385;55.772;37.658;2023-06-14T02:17:22;19.17;;;8.32;;
76540;SDS011;65385;55.772;37.658;2023-06-14T02:18:23;22.80;;;8.80;;
76540;SDS011;65385;55.772;37.658;2023-06-14T02:19:24;18.17;;;8.73;;
76540;SDS011;65385;55.772;37.658;2023-06-14T02:20:25;17.15;;;8.68;;
76540;SDS011;65385;55.772;37.658;2023-06-14T02:21:26;19.77;;;9.40;;
76540;SDS011;65385;55.772;37.658;2023-06-14T02:22:26;18.40;;;8.95;;
76540;SDS011;65385;55.772;37.658;2023-06-14T02:23:27;21.77;;;9.02;;
76540;SDS011;65385;55.772;37.658;2023-06-14T02:24:28;20.27;;;9.20;;
76540;SDS011;65385;55.772;37.658;2023-06-14T02:25:28;15.38;;;9.15;;
76540;SDS011;65385;55.772;37.658;2023-06-14T02:26:29;17.25;;;8.52;;
76540;SDS011;65385;55.772;37.658;2023-06-14T02:27:30;15.23;;;7.68;;
76540;SDS011;65385;55.772;37.658;2023-06-14T02:28:31;24.05;;;9.18;;
76540;SDS011;65385;55.772;37.658;2023-06-14T02:29:31;18.80;;;8.75;;
76540;SDS011;65385;55.772;37.658;2023-06-14T02:30:32;16.38;;;8.60;;
76540;SDS011;65385;55.772;37.658;2023-06-14T02:31:33;15.18;;;7.90;;
76540;SDS011;65385;55.772;37.658;2023-06-14T02:32:34;17.08;;;8.95;;
76540;SDS011;65385;55.772;37.658;2023-06-14T02:33:35;16.13;;;7.97;;
76540;SDS011;65385;55.772;37.658;2023-06-14T02:34:36;17.95;;;7.82;;
76540;SDS011;65385;55.772;37.658;2023-06-14T02:35:36;18.02;;;7.53;;
76540;SDS011;65385;55.772;37.658;2023-06-14T02:36:38;15.70;;;9.02;;
76540;SDS011;65385;55.772;37.658;2023-06-14T02:37:41;16.13;;;8.55;;
76540;SDS011;65385;55.772;37.658;2023-06-14T02:38:43;19.38;;;9.32;;
76540;SDS011;65385;55.772;37.658;2023-06-14T02:39:43;20.25;;;8.65;;
76540;SDS011;65385;55.772;37.658;2023-06-14T02:40:44;17.48;;;8.35;;
76540;SDS011;65385;55.772;37.658;2023-06-14T02:41:44;19.70;;;9.80;;
76540;SDS011;65385;55.772;37.658;2023-06-14T02:42:45;23.60;;;14.93;;
76540;SDS011;65385;55.772;37.658;2023-06-14T02:43:46;27.17;;;14.30;;
76540;SDS011;65385;55.772;37.658;2023-06-14T02:44:47;26.77;;;14.07;;
76540;SDS011;65385;55.772;37.658;2023-06-14T02:45:51;21.00;;;10.88;;
76540;SDS011;65385;55.772;37.658;2023-06-14T02:46:53;32.58;;;14.48;;
76540;SDS011;65385;55.772;37.658;2023-06-14T02:47:54;25.48;;;13.45;;
76540;SDS011;65385;55.772;37.658;2023-06-14T02:48:56;26.27;;;13.48;;
76540;SDS011;65385;55.772;37.658;2023-06-14T02:49:56;23.58;;;14.15;;
76540;SDS011;65385;55.772;37.658;2023-06-14T02:50:58;22.85;;;12.52;;
76540;SDS011;65385;55.772;37.658;2023-06-14T02:51:58;20.20;;;11.20;;
76540;SDS011;65385;55.772;37.658;2023-06-14T02:52:59;24.70;;;11.82;;
76540;SDS011;65385;55.772;37.658;2023-06-14T02:54:00;18.88;;;9.98;;
76540;SDS011;65385;55.772;37.658;2023-06-14T02:55:00;19.83;;;8.88;;
76540;SDS011;65385;55.772;37.658;2023-06-14T02:56:01;18.23;;;8.82;;
76540;SDS011;65385;55.772;37.658;2023-06-14T02:57:04;17.15;;;7.82;;
76540;SDS011;65385;55.772;37.658;2023-06-14T02:58:07;16.90;;;8.00;;
76540;SDS011;65385;55.772;37.658;2023-06-14T02:59:08;13.43;;;7.13;;
76540;SDS011;65385;55.772;37.658;2023-06-14T03:00:10;17.73;;;7.90;;
76540;SDS011;65385;55.772;37.658;2023-06-14T03:01:15;17.25;;;7.93;;
76540;SDS011;65385;55.772;37.658;2023-06-14T03:02:17;16.20;;;8.00;;
76540;SDS011;65385;55.772;37.658;2023-06-14T03:03:18;14.70;;;7.60;;
76540;SDS011;65385;55.772;37.658;2023-06-14T03:04:25;15.23;;;7.15;;
76540;SDS011;65385;55.772;37.658;2023-06-14T03:05:27;16.83;;;7.07;;
76540;SDS011;65385;55.772;37.658;2023-06-14T03:06:31;14.77;;;7.40;;
76540;SDS011;65385;55.772;37.658;2023-06-14T03:07:33;13.15;;;7.28;;
76540;SDS011;65385;55.772;37.658;2023-06-14T03:08:35;13.25;;;8.20;;
76540;SDS011;65385;55.772;37.658;2023-06-14T03:09:42;17.10;;;7.55;;
76540;SDS011;65385;55.772;37.658;2023-06-14T03:10:45;17.80;;;7.75;;
76540;SDS011;65385;55.772;37.658;2023-06-14T03:11:47;11.73;;;6.88;;
76540;SDS011;65385;55.772;37.658;2023-06-14T03:12:48;14.88;;;8.10;;
76540;SDS011;65385;55.772;37.658;2023-06-14T03:13:50;16.35;;;7.15;;
76540;SDS011;65385;55.772;37.658;2023-06-14T03:14:52;17.25;;;8.20;;
76540;SDS011;65385;55.772;37.658;2023-06-14T03:15:56;14.13;;;7.68;;
76540;SDS011;65385;55.772;37.658;2023-06-14T03:16:57;14.23;;;7.88;;
76540;SDS011;65385;55.772;37.658;2023-06-14T03:17:59;17.77;;;8.27;;
76540;SDS011;65385;55.772;37.658;2023-06-14T03:19:00;14.60;;;7.93;;
76540;SDS011;65385;55.772;37.658;2023-06-14T03:20:04;13.35;;;7.95;;
76540;SDS011;65385;55.772;37.658;2023-06-14T03:21:05;13.85;;;7.80;;
76540;SDS011;65385;55.772;37.658;2023-06-14T03:22:07;19.75;;;8.45;;
76540;SDS011;65385;55.772;37.658;2023-06-14T03:23:09;16.52;;;7.35;;
76540;SDS011;65385;55.772;37.658;2023-06-14T03:24:09;14.68;;;7.57;;
76540;SDS011;65385;55.772;37.658;2023-06-14T03:25:10;14.80;;;7.63;;
76540;SDS011;65385;55.772;37.658;2023-06-14T03:26:13;17.23;;;9.55;;
76540;SDS011;65385;55.772;37.658;2023-06-14T03:27:18;18.40;;;8.32;;
76540;SDS011;65385;55.772;37.658;2023-06-14T03:28:20;17.67;;;8.60;;
76540;SDS011;65385;55.772;37.658;2023-06-14T03:29:21;16.90;;;8.52;;
76540;SDS011;65385;55.772;37.658;2023-06-14T03:30:22;17.40;;;8.57;;
76540;SDS011;65385;55.772;37.658;2023-06-14T03:31:25;17.55;;;8.98;;
76540;SDS011;65385;55.772;37.658;2023-06-14T03:32:26;18.83;;;8.85;;
76540;SDS011;65385;55.772;37.658;2023-06-14T03:33:27;18.80;;;8.57;;
76540;SDS011;65385;55.772;37.658;2023-06-14T03:34:28;15.45;;;7.82;;
76540;SDS011;65385;55.772;37.658;2023-06-14T03:35:29;19.70;;;8.80;;
76540;SDS011;65385;55.772;37.658;2023-06-14T03:36:30;18.65;;;8.20;;
76540;SDS011;65385;55.772;37.658;2023-06-14T03:37:31;17.45;;;8.85;;
76540;SDS011;65385;55.772;37.658;2023-06-14T03:38:31;18.13;;;7.50;;
76540;SDS011;65385;55.772;37.658;2023-06-14T03:39:32;16.45;;;7.38;;
76540;SDS011;65385;55.772;37.658;2023-06-14T03:40:33;19.85;;;9.57;;
76540;SDS011;65385;55.772;37.658;2023-06-14T03:41:36;16.60;;;7.97;;
76540;SDS011;65385;55.772;37.658;2023-06-14T03:42:37;19.92;;;9.57;;
76540;SDS011;65385;55.772;37.658;2023-06-14T03:43:39;16.80;;;8.68;;
76540;SDS011;65385;55.772;37.658;2023-06-14T03:44:39;17.77;;;8.60;;
76540;SDS011;65385;55.772;37.658;2023-06-14T03:45:40;15.07;;;8.15;;
76540;SDS011;65385;55.772;37.658;2023-06-14T03:46:42;17.58;;;8.25;;
76540;SDS011;65385;55.772;37.658;2023-06-14T03:47:42;19.13;;;8.35;;
76540;SDS011;65385;55.772;37.658;2023-06-14T03:48:43;17.17;;;8.80;;
76540;SDS011;65385;55.772;37.658;2023-06-14T03:49:44;16.75;;;8.93;;
76540;SDS011;65385;55.772;37.658;2023-06-14T03:50:45;16.23;;;8.00;;
76540;SDS011;65385;55.772;37.658;2023-06-14T03:51:45;16.75;;;8.55;;
76540;SDS011;65385;55.772;37.658;2023-06-14T03:52:53;19.25;;;8.63;;
76540;SDS011;65385;55.772;37.658;2023-06-14T03:53:54;18.15;;;9.60;;
76540;SDS011;65385;55.772;37.658;2023-06-14T03:54:56;18.90;;;9.32;;
76540;SDS011;65385;55.772;37.658;2023-06-14T03:55:57;18.73;;;9.63;;
76540;SDS011;65385;55.772;37.658;2023-06-14T03:57:05;19.33;;;9.80;;
76540;SDS011;65385;55.772;37.658;2023-06-14T03:58:06;19.25;;;10.43;;
76540;SDS011;65385;55.772;37.658;2023-06-14T03:59:07;17.30;;;9.85;;
76540;SDS011;65385;55.772;37.658;2023-06-14T04:00:08;20.45;;;10.93;;
76540;SDS011;65385;55.772;37.658;2023-06-14T04:01:15;17.05;;;10.15;;
76540;SDS011;65385;55.772;37.658;2023-06-14T04:02:15;16.88;;;9.73;;
76540;SDS011;65385;55.772;37.658;2023-06-14T04:03:17;19.63;;;9.15;;
76540;SDS011;65385;55.772;37.658;2023-06-14T04:04:20;16.83;;;9.98;;
76540;SDS011;65385;55.772;37.658;2023-06-14T04:05:22;17.15;;;9.30;;
76540;SDS011;65385;55.772;37.658;2023-06-14T04:06:27;14.82;;;8.35;;
76540;SDS011;65385;55.772;37.658;2023-06-14T04:07:33;15.98;;;8.93;;
76540;SDS011;65385;55.772;37.658;2023-06-14T04:08:39;14.93;;;7.78;;
76540;SDS011;65385;55.772;37.658;2023-06-14T04:09:41;17.02;;;8.25;;
76540;SDS011;65385;55.772;37.658;2023-06-14T04:10:42;18.38;;;8.23;;
76540;SDS011;65385;55.772;37.658;2023-06-14T04:11:43;15.95;;;8.60;;
76540;SDS011;65385;55.772;37.658;2023-06-14T04:12:43;14.02;;;7.78;;
76540;SDS011;65385;55.772;37.658;2023-06-14T04:13:44;15.55;;;7.95;;
76540;SDS011;65385;55.772;37.658;2023-06-14T04:14:44;12.77;;;8.35;;
76540;SDS011;65385;55.772;37.658;2023-06-14T04:15:46;18.35;;;8.05;;
76540;SDS011;65385;55.772;37.658;2023-06-14T04:16:51;18.10;;;8.30;;
76540;SDS011;65385;55.772;37.658;2023-06-14T04:17:54;17.65;;;7.95;;
76540;SDS011;65385;55.772;37.658;2023-06-14T04:18:57;13.52;;;7.70;;
76540;SDS011;65385;55.772;37.658;2023-06-14T04:19:59;16.38;;;8.50;;
76540;SDS011;65385;55.772;37.658;2023-06-14T04:21:00;13.60;;;7.22;;
76540;SDS011;65385;55.772;37.658;2023-06-14T04:22:01;16.65;;;7.95;;
76540;SDS011;65385;55.772;37.658;2023-06-14T04:24:19;12.40;;;7.53;;
76540;SDS011;65385;55.772;37.658;2023-06-14T04:25:22;13.80;;;6.65;;
76540;SDS011;65385;55.772;37.658;2023-06-14T04:26:23;11.15;;;6.43;;
76540;SDS011;65385;55.772;37.658;2023-06-14T04:27:30;10.43;;;6.22;;
76540;SDS011;65385;55.772;37.658;2023-06-14T04:28:36;11.25;;;6.75;;
76540;SDS011;65385;55.772;37.658;2023-06-14T04:29:41;10.85;;;6.85;;
76540;SDS011;65385;55.772;37.658;2023-06-14T04:30:46;11.30;;;6.25;;
76540;SDS011;65385;55.772;37.658;2023-06-14T04:31:48;12.13;;;6.20;;
76540;SDS011;65385;55.772;37.658;2023-06-14T04:32:49;11.40;;;6.97;;
76540;SDS011;65385;55.772;37.658;2023-06-14T04:33:56;12.60;;;6.80;;
76540;SDS011;65385;55.772;37.658;2023-06-14T04:34:57;14.18;;;7.22;;
76540;SDS011;65385;55.772;37.658;2023-06-14T04:36:00;13.05;;;6.05;;
76540;SDS011;65385;55.772;37.658;2023-06-14T04:37:01;12.23;;;6.20;;
76540;SDS011;65385;55.772;37.658;2023-06-14T04:38:08;11.95;;;5.57;;
76540;SDS011;65385;55.772;37.658;2023-06-14T04:39:10;13.38;;;6.22;;
76540;SDS011;65385;55.772;37.658;2023-06-14T04:40:11;9.98;;;5.80;;
76540;SDS011;65385;55.772;37.658;2023-06-14T04:41:12;11.10;;;5.85;;
76540;SDS011;65385;55.772;37.658;2023-06-14T04:42:15;10.77;;;5.93;;
76540;SDS011;65385;55.772;37.658;2023-06-14T04:43:17;9.40;;;5.22;;
76540;SDS011;65385;55.772;37.658;2023-06-14T04:44:19;13.15;;;6.40;;
76540;SDS011;65385;55.772;37.658;2023-06-14T04:45:22;11.13;;;5.88;;
76540;SDS011;65385;55.772;37.658;2023-06-14T04:46:24;13.57;;;6.30;;
76540;SDS011;65385;55.772;37.658;2023-06-14T04:47:29;10.70;;;5.78;;
76540;SDS011;65385;55.772;37.658;2023-06-14T04:48:31;8.90;;;6.15;;
76540;SDS011;65385;55.772;37.658;2023-06-14T04:49:32;11.30;;;6.10;;
76540;SDS011;65385;55.772;37.658;2023-06-14T04:50:34;9.50;;;5.50;;
76540;SDS011;65385;55.772;37.658;2023-06-14T04:51:35;9.25;;;5.43;;
76540;SDS011;65385;55.772;37.658;2023-06-14T04:52:37;8.48;;;5.10;;
76540;SDS011;65385;55.772;37.658;2023-06-14T04:53:39;12.73;;;5.15;;
76540;SDS011;65385;55.772;37.658;2023-06-14T04:54:40;11.82;;;5.15;;
76540;SDS011;65385;55.772;37.658;2023-06-14T04:55:45;12.05;;;5.05;;
76540;SDS011;65385;55.772;37.658;2023-06-14T04:56:46;12.45;;;5.18;;
76540;SDS011;65385;55.772;37.658;2023-06-14T04:57:47;11.50;;;5.75;;
76540;SDS011;65385;55.772;37.658;2023-06-14T04:58:49;10.55;;;4.95;;
76540;SDS011;65385;55.772;37.658;2023-06-14T04:59:50;11.10;;;5.00;;
76540;SDS011;65385;55.772;37.658;2023-06-14T05:00:55;8.27;;;4.50;;
76540;SDS011;65385;55.772;37.658;2023-06-14T05:01:59;8.48;;;4.70;;
76540;SDS011;65385;55.772;37.658;2023-06-14T05:03:00;12.00;;;4.93;;
76540;SDS011;65385;55.772;37.658;2023-06-14T05:04:03;10.23;;;5.43;;
76540;SDS011;65385;55.772;37.658;2023-06-14T05:05:04;9.30;;;5.43;;
76540;SDS011;65385;55.772;37.658;2023-06-14T05:06:08;10.73;;;5.45;;
76540;SDS011;65385;55.772;37.658;2023-06-14T05:07:09;9.32;;;5.18;;
76540;SDS011;65385;55.772;37.658;2023-06-14T05:08:11;7.70;;;5.25;;
76540;SDS011;65385;55.772;37.658;2023-06-14T05:09:13;11.00;;;4.75;;
76540;SDS011;65385;55.772;37.658;2023-06-14T05:10:14;10.57;;;4.93;;
76540;SDS011;65385;55.772;37.658;2023-06-14T05:11:16;8.65;;;4.43;;
76540;SDS011;65385;55.772;37.658;2023-06-14T05:12:20;8.25;;;4.40;;
76540;SDS011;65385;55.772;37.658;2023-06-14T05:13:21;10.32;;;5.10;;
76540;SDS011;65385;55.772;37.658;2023-06-14T05:14:23;10.85;;;4.75;;
76540;SDS011;65385;55.772;37.658;2023-06-14T05:15:25;6.32;;;4.50;;
76540;SDS011;65385;55.772;37.658;2023-06-14T05:16:26;6.25;;;4.75;;
76540;SDS011;65385;55.772;37.658;2023-06-14T05:17:27;7.32;;;4.63;;
76540;SDS011;65385;55.772;37.658;2023-06-14T05:18:31;9.07;;;4.30;;
76540;SDS011;65385;55.772;37.658;2023-06-14T05:19:34;9.65;;;4.95;;
76540;SDS011;65385;55.772;37.658;2023-06-14T05:20:34;10.45;;;4.97;;
76540;SDS011;65385;55.772;37.658;2023-06-14T05:21:37;8.85;;;4.63;;
76540;SDS011;65385;55.772;37.658;2023-06-14T05:22:37;8.75;;;4.95;;
76540;SDS011;65385;55.772;37.658;2023-06-14T05:23:38;8.20;;;4.82;;
76540;SDS011;65385;55.772;37.658;2023-06-14T05:24:39;9.05;;;4.55;;
76540;SDS011;65385;55.772;37.658;2023-06-14T05:25:40;9.52;;;4.60;;
76540;SDS011;65385;55.772;37.658;2023-06-14T05:26:42;9.60;;;4.35;;
76540;SDS011;65385;55.772;37.658;2023-06-14T05:27:43;9.63;;;4.70;;
76540;SDS011;65385;55.772;37.658;2023-06-14T05:28:43;7.72;;;4.28;;
76540;SDS011;65385;55.772;37.658;2023-06-14T05:29:44;8.63;;;4.38;;
76540;SDS011;65385;55.772;37.658;2023-06-14T05:30:45;7.55;;;5.00;;
76540;SDS011;65385;55.772;37.658;2023-06-14T05:31:46;12.43;;;4.60;;
76540;SDS011;65385;55.772;37.658;2023-06-14T05:32:46;10.23;;;4.55;;
76540;SDS011;65385;55.772;37.658;2023-06-14T05:33:47;7.55;;;4.85;;
76540;SDS011;65385;55.772;37.658;2023-06-14T05:34:48;13.30;;;4.97;;
76540;SDS011;65385;55.772;37.658;2023-06-14T05:35:49;10.77;;;4.78;;
76540;SDS011;65385;55.772;37.658;2023-06-14T05:36:50;8.70;;;4.65;;
76540;SDS011;65385;55.772;37.658;2023-06-14T05:37:51;8.15;;;4.30;;
76540;SDS011;65385;55.772;37.658;2023-06-14T05:38:52;8.32;;;4.32;;
76540;SDS011;65385;55.772;37.658;2023-06-14T05:39:57;10.40;;;4.32;;
76540;SDS011;65385;55.772;37.658;2023-06-14T05:40:58;11.15;;;5.03;;
76540;SDS011;65385;55.772;37.658;2023-06-14T05:41:59;9.18;;;4.75;;
76540;SDS011;65385;55.772;37.658;2023-06-14T05:43:00;8.65;;;4.45;;
76540;SDS011;65385;55.772;37.658;2023-06-14T05:44:00;10.57;;;4.88;;
76540;SDS011;65385;55.772;37.658;2023-06-14T05:45:01;8.45;;;4.28;;
76540;SDS011;65385;55.772;37.658;2023-06-14T05:46:02;9.68;;;3.85;;
76540;SDS011;65385;55.772;37.658;2023-06-14T05:47:03;9.48;;;4.85;;
76540;SDS011;65385;55.772;37.658;2023-06-14T05:48:04;7.63;;;4.03;;
76540;SDS011;65385;55.772;37.658;2023-06-14T05:49:04;8.85;;;4.22;;
76540;SDS011;65385;55.772;37.658;2023-06-14T05:50:05;6.53;;;3.97;;
76540;SDS011;65385;55.772;37.658;2023-06-14T05:51:06;10.07;;;4.47;;
76540;SDS011;65385;55.772;37.658;2023-06-14T05:52:09;5.13;;;3.97;;
76540;SDS011;65385;55.772;37.658;2023-06-14T05:53:10;8.75;;;3.90;;
76540;SDS011;65385;55.772;37.658;2023-06-14T05:54:11;9.77;;;3.97;;
76540;SDS011;65385;55.772;37.658;2023-06-14T05:55:12;6.38;;;3.33;;
76540;SDS011;65385;55.772;37.658;2023-06-14T05:56:13;10.43;;;4.10;;
76540;SDS011;65385;55.772;37.658;2023-06-14T05:57:14;8.75;;;3.80;;
76540;SDS011;65385;55.772;37.658;2023-06-14T05:58:15;7.40;;;3.55;;
76540;SDS011;65385;55.772;37.658;2023-06-14T05:59:16;8.07;;;3.60;;
76540;SDS011;65385;55.772;37.658;2023-06-14T06:00:16;8.48;;;3.40;;
76540;SDS011;65385;55.772;37.658;2023-06-14T06:01:18;7.53;;;4.07;;
76540;SDS011;65385;55.772;37.658;2023-06-14T06:02:18;8.82;;;3.50;;
76540;SDS011;65385;55.772;37.658;2023-06-14T06:03:19;6.90;;;3.25;;
76540;SDS011;65385;55.772;37.658;2023-06-14T06:04:19;6.70;;;3.55;;
76540;SDS011;65385;55.772;37.658;2023-06-14T06:05:20;5.97;;;3.60;;
76540;SDS011;65385;55.772;37.658;2023-06-14T06:06:21;5.65;;;3.50;;
76540;SDS011;65385;55.772;37.658;2023-06-14T06:07:22;10.02;;;3.83;;
76540;SDS011;65385;55.772;37.658;2023-06-14T06:08:22;8.48;;;3.58;;
76540;SDS011;65385;55.772;37.658;2023-06-14T06:09:23;7.13;;;3.13;;
76540;SDS011;65385;55.772;37.658;2023-06-14T06:10:24;6.50;;;2.95;;
76540;SDS011;65385;55.772;37.658;2023-06-14T06:11:25;5.57;;;3.22;;
76540;SDS011;65385;55.772;37.658;2023-06-14T06:12:25;4.75;;;3.05;;